createdAt,value
2023-03-15T00:01:27.777Z,689.59
2023-03-15T00:02:24.456Z,694.62
2023-03-15T00:03:19.747Z,698.26
2023-03-15T00:04:13.088Z,704.15
2023-03-15T00:05:08.273Z,717.03
2023-03-15T00:06:03.334Z,709.40
2023-03-15T00:06:58.574Z,722.46
2023-03-15T00:07:53.638Z,714.72
2023-03-15T00:08:48.866Z,719.34
2023-03-15T00:09:43.976Z,717.80
2023-03-15T00:10:39.065Z,714.72
2023-03-15T00:11:34.262Z,726.40
2023-03-15T00:12:29.366Z,714.72
2023-03-15T00:13:24.549Z,717.80
2023-03-15T00:14:19.782Z,724.82
2023-03-15T00:15:15.009Z,727.98
2023-03-15T00:16:10.006Z,734.40
2023-03-15T00:17:05.084Z,736.83
2023-03-15T00:18:00.289Z,726.40
2023-03-15T00:18:55.345Z,727.98
2023-03-15T00:19:50.477Z,709.40
2023-03-15T00:20:45.533Z,727.19
2023-03-15T00:21:40.894Z,720.12
2023-03-15T00:22:35.897Z,716.26
2023-03-15T00:23:31.115Z,706.39
2023-03-15T00:24:26.183Z,701.93
2023-03-15T00:25:21.454Z,693.17
2023-03-15T00:26:16.517Z,685.34
2023-03-15T00:27:11.717Z,693.90
2023-03-15T00:28:06.777Z,703.41
2023-03-15T00:29:02.002Z,710.91
2023-03-15T00:29:57.375Z,708.64
2023-03-15T00:30:52.363Z,701.93
2023-03-15T00:31:47.418Z,717.03
2023-03-15T00:32:42.595Z,712.43
2023-03-15T00:33:37.668Z,703.41
2023-03-15T00:34:32.901Z,698.26
2023-03-15T00:35:28.009Z,704.90
2023-03-15T00:36:23.107Z,701.93
2023-03-15T00:37:18.176Z,709.40
2023-03-15T00:38:13.394Z,702.67
2023-03-15T00:39:08.452Z,701.19
2023-03-15T00:40:03.743Z,701.93
2023-03-15T00:40:58.675Z,713.19
2023-03-15T00:41:54.142Z,701.93
2023-03-15T00:42:49.206Z,700.46
2023-03-15T00:43:44.448Z,690.30
2023-03-15T00:44:39.660Z,693.90
2023-03-15T00:45:34.602Z,680.44
2023-03-15T00:46:29.799Z,677.68
2023-03-15T00:47:24.769Z,680.44
2023-03-15T00:48:19.840Z,671.53
2023-03-15T00:49:15.059Z,670.18
2023-03-15T00:50:10.175Z,670.86
2023-03-15T00:51:05.389Z,671.53
2023-03-15T00:52:00.607Z,673.57
2023-03-15T00:52:55.712Z,673.57
2023-03-15T00:53:50.900Z,681.14
2023-03-15T00:54:46.042Z,680.44
2023-03-15T00:55:41.134Z,686.75
2023-03-15T00:56:36.470Z,688.88
2023-03-15T00:57:31.540Z,687.46
2023-03-15T00:58:27.603Z,692.45
2023-03-15T00:59:21.748Z,700.46
2023-03-15T01:00:17.043Z,705.64
2023-03-15T01:01:12.070Z,707.14
2023-03-15T01:02:07.482Z,708.64
2023-03-15T01:03:02.477Z,717.80
2023-03-15T01:03:57.564Z,722.46
2023-03-15T01:04:52.635Z,716.26
2023-03-15T01:05:47.847Z,721.68
2023-03-15T01:06:42.903Z,722.46
2023-03-15T01:07:38.025Z,710.91
2023-03-15T01:08:33.073Z,711.67
2023-03-15T01:09:28.286Z,715.49
2023-03-15T01:10:23.381Z,715.49
2023-03-15T01:11:18.614Z,720.90
2023-03-15T01:12:13.657Z,729.58
2023-03-15T01:13:08.750Z,733.59
2023-03-15T01:14:03.814Z,731.98
2023-03-15T01:14:59.199Z,723.25
2023-03-15T01:15:54.154Z,732.78
2023-03-15T01:16:49.219Z,737.65
2023-03-15T01:17:44.433Z,739.28
2023-03-15T01:18:39.525Z,739.28
2023-03-15T01:19:34.623Z,738.46
2023-03-15T01:20:29.679Z,743.40
2023-03-15T01:21:24.732Z,745.07
2023-03-15T01:22:20.090Z,745.07
2023-03-15T01:23:15.156Z,749.16
2023-03-15T01:24:10.366Z,755.52
2023-03-15T01:25:05.612Z,752.54
2023-03-15T01:26:00.674Z,756.80
2023-03-15T01:26:55.721Z,761.55
2023-03-15T01:27:50.825Z,766.36
2023-03-15T01:28:45.884Z,762.86
2023-03-15T01:29:41.117Z,767.24
2023-03-15T01:30:37.412Z,764.60
2023-03-15T01:31:32.684Z,764.60
2023-03-15T01:32:27.764Z,761.12
2023-03-15T01:33:22.900Z,766.36
2023-03-15T01:34:17.988Z,763.29
2023-03-15T01:35:13.103Z,762.42
2023-03-15T01:36:08.198Z,755.95
2023-03-15T01:37:03.480Z,762.86
2023-03-15T01:37:58.669Z,758.52
2023-03-15T01:38:53.878Z,769.90
2023-03-15T01:39:48.998Z,761.55
2023-03-15T01:40:44.131Z,762.86
2023-03-15T01:41:40.552Z,757.23
2023-03-15T01:42:35.790Z,767.24
2023-03-15T01:43:31.566Z,772.57
2023-03-15T01:44:26.935Z,780.70
2023-03-15T01:45:21.933Z,782.53
2023-03-15T01:46:17.826Z,792.76
2023-03-15T01:47:13.016Z,786.68
2023-03-15T01:48:08.717Z,787.61
2023-03-15T01:49:03.782Z,786.68
2023-03-15T01:49:59.230Z,782.07
2023-03-15T01:50:54.996Z,776.16
2023-03-15T01:51:50.277Z,775.71
2023-03-15T01:52:45.340Z,766.36
2023-03-15T01:53:41.846Z,765.92
2023-03-15T01:54:37.101Z,758.95
2023-03-15T01:55:32.771Z,752.11
2023-03-15T01:56:27.873Z,750.42
2023-03-15T01:57:22.987Z,743.40
2023-03-15T01:58:18.802Z,740.93
2023-03-15T01:59:14.061Z,738.46
2023-03-15T02:00:10.003Z,726.40
2023-03-15T02:01:05.050Z,721.68
2023-03-15T02:02:00.177Z,717.03
2023-03-15T02:02:56.055Z,731.18
2023-03-15T02:03:51.180Z,720.12
2023-03-15T02:04:46.602Z,727.98
2023-03-15T02:05:42.786Z,722.46
2023-03-15T02:06:38.051Z,725.61
2023-03-15T02:07:33.864Z,727.19
2023-03-15T02:08:29.085Z,724.82
2023-03-15T02:09:24.314Z,732.78
2023-03-15T02:10:20.284Z,740.10
2023-03-15T02:11:15.230Z,763.29
2023-03-15T02:12:10.944Z,777.52
2023-03-15T02:13:05.998Z,787.15
2023-03-15T02:14:01.394Z,796.54
2023-03-15T02:14:57.328Z,811.55
2023-03-15T02:15:52.294Z,837.52
2023-03-15T02:16:47.406Z,861.29
2023-03-15T02:17:43.754Z,870.27
2023-03-15T02:18:38.829Z,893.57
2023-03-15T02:19:34.626Z,890.00
2023-03-15T02:20:30.019Z,887.63
2023-03-15T02:21:24.992Z,890.00
2023-03-15T02:22:20.787Z,905.09
2023-03-15T02:23:15.913Z,904.47
2023-03-15T02:24:11.671Z,918.16
2023-03-15T02:25:06.777Z,916.90
2023-03-15T02:26:02.046Z,909.40
2023-03-15T02:26:57.748Z,903.86
2023-03-15T02:27:52.904Z,900.81
2023-03-15T02:28:47.966Z,903.86
2023-03-15T02:29:44.465Z,898.99
2023-03-15T02:30:39.425Z,893.57
2023-03-15T02:31:35.284Z,879.45
2023-03-15T02:32:30.403Z,878.87
2023-03-15T02:33:25.543Z,879.45
2023-03-15T02:34:21.381Z,873.69
2023-03-15T02:35:16.605Z,874.26
2023-03-15T02:36:12.550Z,865.20
2023-03-15T02:37:07.658Z,868.01
2023-03-15T02:38:02.663Z,878.29
2023-03-15T02:38:58.484Z,880.61
2023-03-15T02:39:53.612Z,878.29
2023-03-15T02:40:48.836Z,878.87
2023-03-15T02:41:43.922Z,887.63
2023-03-15T02:42:39.724Z,871.41
2023-03-15T02:43:34.816Z,860.73
2023-03-15T02:44:29.948Z,859.07
2023-03-15T02:45:25.748Z,854.13
2023-03-15T02:46:21.079Z,853.58
2023-03-15T02:47:16.919Z,843.34
2023-03-15T02:48:12.050Z,836.47
2023-03-15T02:49:07.340Z,840.15
2023-03-15T02:50:03.030Z,831.26
2023-03-15T02:50:58.128Z,825.60
2023-03-15T02:51:53.495Z,813.53
2023-03-15T02:52:49.712Z,815.02
2023-03-15T02:53:44.967Z,816.02
2023-03-15T02:54:40.904Z,822.55
2023-03-15T02:55:36.014Z,829.19
2023-03-15T02:56:31.239Z,815.52
2023-03-15T02:57:26.932Z,814.52
2023-03-15T02:58:21.983Z,812.04
2023-03-15T02:59:17.279Z,805.19
2023-03-15T03:00:12.243Z,798.45
2023-03-15T03:01:07.625Z,798.92
2023-03-15T03:02:02.807Z,797.02
2023-03-15T03:02:57.909Z,797.97
2023-03-15T03:03:54.233Z,802.77
2023-03-15T03:04:49.632Z,801.32
2023-03-15T03:05:44.618Z,760.68
2023-03-15T03:06:40.446Z,716.26
2023-03-15T03:07:35.511Z,710.91
2023-03-15T03:08:30.741Z,719.34
2023-03-15T03:09:26.029Z,736.83
2023-03-15T03:10:21.021Z,753.39
2023-03-15T03:11:16.239Z,770.34
2023-03-15T03:12:12.703Z,768.57
2023-03-15T03:13:07.884Z,777.97
2023-03-15T03:14:03.140Z,774.36
2023-03-15T03:15:02.744Z,770.34
2023-03-15T03:15:57.689Z,773.47
2023-03-15T03:16:52.685Z,773.91
2023-03-15T03:17:47.691Z,774.81
2023-03-15T03:18:42.664Z,765.92
2023-03-15T03:19:37.777Z,768.57
2023-03-15T03:20:34.265Z,770.34
2023-03-15T03:21:29.485Z,781.16
2023-03-15T03:22:24.707Z,782.99
2023-03-15T03:23:19.816Z,783.45
2023-03-15T03:24:14.897Z,788.08
2023-03-15T03:25:10.036Z,792.28
2023-03-15T03:26:05.123Z,799.40
2023-03-15T03:27:00.463Z,802.77
2023-03-15T03:27:55.594Z,817.01
2023-03-15T03:28:50.878Z,822.55
2023-03-15T03:29:45.988Z,827.14
2023-03-15T03:30:41.167Z,840.68
2023-03-15T03:31:37.154Z,856.87
2023-03-15T03:32:31.592Z,845.47
2023-03-15T03:33:26.652Z,843.34
2023-03-15T03:34:22.051Z,841.74
2023-03-15T03:35:17.032Z,830.74
2023-03-15T03:36:12.124Z,824.07
2023-03-15T03:37:07.261Z,819.02
2023-03-15T03:38:02.490Z,828.68
2023-03-15T03:38:57.938Z,830.74
2023-03-15T03:39:52.918Z,826.11
2023-03-15T03:40:48.019Z,836.99
2023-03-15T03:41:43.000Z,852.49
2023-03-15T03:42:38.109Z,853.58
2023-03-15T03:43:33.374Z,830.22
2023-03-15T03:44:28.608Z,821.03
2023-03-15T03:45:23.723Z,817.01
2023-03-15T03:46:18.835Z,814.52
2023-03-15T03:47:13.845Z,808.11
2023-03-15T03:48:08.835Z,813.53
2023-03-15T03:49:03.875Z,834.90
2023-03-15T03:49:58.989Z,833.85
2023-03-15T03:50:54.122Z,844.40
2023-03-15T03:51:49.334Z,845.47
2023-03-15T03:52:44.375Z,850.32
2023-03-15T03:53:39.467Z,855.22
2023-03-15T03:54:34.516Z,867.45
2023-03-15T03:55:29.519Z,864.64
2023-03-15T03:56:24.613Z,799.88
2023-03-15T03:57:19.680Z,724.03
2023-03-15T03:58:14.799Z,709.40
2023-03-15T03:59:09.789Z,727.98
2023-03-15T04:00:04.949Z,752.96
2023-03-15T04:00:59.918Z,781.16
2023-03-15T04:01:55.065Z,797.49
2023-03-15T04:02:50.108Z,814.52
2023-03-15T04:03:45.150Z,835.94
2023-03-15T04:04:40.307Z,862.40
2023-03-15T04:05:35.227Z,876.56
2023-03-15T04:06:33.840Z,891.78
2023-03-15T04:07:28.914Z,900.81
2023-03-15T04:08:23.959Z,883.52
2023-03-15T04:09:19.264Z,867.45
2023-03-15T04:10:14.263Z,873.69
2023-03-15T04:11:09.401Z,888.22
2023-03-15T04:12:04.451Z,895.37
2023-03-15T04:12:59.441Z,918.16
2023-03-15T04:13:54.440Z,882.35
2023-03-15T04:14:49.634Z,797.49
2023-03-15T04:15:44.718Z,765.04
2023-03-15T04:16:39.718Z,774.81
2023-03-15T04:17:34.736Z,743.40
2023-03-15T04:18:34.274Z,655.04
2023-03-15T04:19:29.258Z,655.04
2023-03-15T04:20:24.277Z,675.62
2023-03-15T04:21:19.299Z,674.25
2023-03-15T04:22:14.419Z,713.95
2023-03-15T04:23:09.519Z,745.90
2023-03-15T04:24:04.657Z,773.02
2023-03-15T04:24:59.636Z,763.73
2023-03-15T04:25:54.794Z,751.27
2023-03-15T04:26:50.019Z,753.81
2023-03-15T04:27:45.042Z,759.39
2023-03-15T04:28:40.016Z,792.28
2023-03-15T04:29:35.086Z,820.03
2023-03-15T04:30:30.087Z,844.94
2023-03-15T04:31:25.266Z,858.52
2023-03-15T04:32:20.786Z,875.41
2023-03-15T04:33:15.919Z,890.00
2023-03-15T04:34:11.769Z,882.94
2023-03-15T04:35:06.875Z,875.98
2023-03-15T04:36:02.268Z,752.54
2023-03-15T04:36:57.946Z,600.21
2023-03-15T04:37:53.045Z,449.35
2023-03-15T04:38:48.347Z,509.81
2023-03-15T04:39:44.529Z,532.19
2023-03-15T04:40:39.862Z,492.49
2023-03-15T04:41:35.648Z,555.69
2023-03-15T04:42:30.863Z,624.96
2023-03-15T04:43:26.001Z,653.76
2023-03-15T04:44:21.872Z,701.19
2023-03-15T04:45:17.000Z,740.93
2023-03-15T04:46:12.826Z,775.71
2023-03-15T04:47:07.960Z,735.21
2023-03-15T04:48:03.317Z,607.87
2023-03-15T04:48:59.289Z,563.68
2023-03-15T04:49:54.303Z,568.97
2023-03-15T04:50:49.381Z,610.65
2023-03-15T04:51:45.731Z,578.35
2023-03-15T04:52:40.851Z,571.41
2023-03-15T04:53:36.832Z,578.35
2023-03-15T04:54:31.801Z,588.55
2023-03-15T04:55:26.968Z,595.39
2023-03-15T04:56:22.778Z,638.12
2023-03-15T04:57:18.042Z,677.68
2023-03-15T04:58:13.980Z,721.68
2023-03-15T04:59:09.106Z,748.74
2023-03-15T05:00:04.088Z,781.62
2023-03-15T05:00:59.986Z,804.22
2023-03-15T05:01:55.233Z,576.84
2023-03-15T05:02:50.366Z,400.50
2023-03-15T05:03:45.526Z,315.00
2023-03-15T05:04:42.059Z,292.53
2023-03-15T05:05:37.321Z,317.74
2023-03-15T05:06:32.667Z,366.34
2023-03-15T05:07:28.443Z,387.47
2023-03-15T05:08:23.634Z,417.82
2023-03-15T05:09:18.706Z,401.95
2023-03-15T05:10:15.078Z,308.48
2023-03-15T05:11:10.182Z,234.60
2023-03-15T05:12:05.993Z,209.17
2023-03-15T05:13:01.129Z,232.93
2023-03-15T05:13:56.323Z,280.77
2023-03-15T05:14:54.150Z,326.92
2023-03-15T05:15:47.294Z,374.71
2023-03-15T05:16:43.188Z,392.49
2023-03-15T05:17:38.281Z,376.86
2023-03-15T05:18:33.617Z,361.50
2023-03-15T05:19:29.222Z,372.16
2023-03-15T05:20:24.350Z,415.47
2023-03-15T05:21:19.648Z,450.56
2023-03-15T05:22:14.789Z,454.56
2023-03-15T05:23:10.048Z,432.45
2023-03-15T05:24:05.509Z,438.71
2023-03-15T05:25:00.773Z,465.99
2023-03-15T05:25:55.942Z,493.95
2023-03-15T05:26:51.832Z,521.37
2023-03-15T05:27:46.973Z,539.51
2023-03-15T05:28:42.473Z,563.20
2023-03-15T05:29:37.388Z,568.97
2023-03-15T05:30:32.456Z,566.55
2023-03-15T05:31:27.433Z,579.35
2023-03-15T05:32:22.571Z,596.99
2023-03-15T05:33:17.809Z,583.41
2023-03-15T05:34:12.673Z,584.43
2023-03-15T05:35:07.886Z,590.64
2023-03-15T05:36:02.910Z,589.60
2023-03-15T05:36:57.899Z,590.64
2023-03-15T05:37:52.933Z,594.86
2023-03-15T05:38:48.087Z,612.34
2023-03-15T05:39:43.218Z,512.16
2023-03-15T05:40:38.236Z,444.55
2023-03-15T05:41:33.274Z,413.67
2023-03-15T05:42:28.260Z,425.28
2023-03-15T05:43:23.458Z,437.27
2023-03-15T05:44:18.338Z,441.90
2023-03-15T05:45:13.401Z,272.15
2023-03-15T05:46:08.384Z,191.58
2023-03-15T05:47:03.487Z,194.31
2023-03-15T05:47:58.684Z,197.58
2023-03-15T05:48:53.824Z,209.04
2023-03-15T05:49:49.192Z,235.27
2023-03-15T05:50:44.411Z,261.10
2023-03-15T05:51:39.716Z,272.83
2023-03-15T05:52:35.049Z,289.94
2023-03-15T05:53:30.485Z,317.43
2023-03-15T05:54:25.613Z,352.57
2023-03-15T05:55:20.900Z,382.36
2023-03-15T05:56:16.180Z,390.19
2023-03-15T05:57:11.398Z,395.28
2023-03-15T05:58:06.729Z,418.08
2023-03-15T05:59:02.038Z,427.73
2023-03-15T05:59:57.482Z,433.57
2023-03-15T06:00:52.589Z,460.84
2023-03-15T06:01:47.873Z,462.76
2023-03-15T06:02:43.198Z,467.62
2023-03-15T06:03:38.563Z,494.68
2023-03-15T06:04:33.808Z,462.76
2023-03-15T06:05:29.194Z,471.59
2023-03-15T06:06:24.631Z,480.77
2023-03-15T06:07:20.017Z,477.67
2023-03-15T06:08:15.252Z,462.44
2023-03-15T06:09:10.754Z,402.19
2023-03-15T06:10:05.960Z,337.69
2023-03-15T06:11:01.306Z,345.88
2023-03-15T06:11:56.633Z,361.90
2023-03-15T06:12:52.169Z,376.00
2023-03-15T06:13:47.379Z,385.23
2023-03-15T06:14:42.848Z,404.88
2023-03-15T06:15:37.907Z,418.86
2023-03-15T06:16:33.106Z,440.15
2023-03-15T06:17:28.511Z,461.80
2023-03-15T06:18:23.294Z,441.90
2023-03-15T06:19:18.338Z,457.67
2023-03-15T06:20:13.423Z,463.40
2023-03-15T06:21:08.496Z,419.13
2023-03-15T06:22:03.583Z,414.44
2023-03-15T06:22:58.934Z,404.39
2023-03-15T06:23:53.799Z,401.46
2023-03-15T06:24:48.997Z,418.86
2023-03-15T06:25:44.021Z,443.67
2023-03-15T06:26:39.117Z,434.42
2023-03-15T06:27:34.120Z,435.27
2023-03-15T06:28:29.161Z,442.49
2023-03-15T06:29:24.259Z,463.72
2023-03-15T06:30:19.468Z,427.18
2023-03-15T06:31:14.434Z,375.57
2023-03-15T06:32:09.727Z,381.48
2023-03-15T06:33:04.603Z,386.12
2023-03-15T06:34:02.712Z,405.37
2023-03-15T06:34:57.944Z,421.51
2023-03-15T06:35:53.359Z,433.01
2023-03-15T06:36:48.673Z,419.92
2023-03-15T06:37:44.346Z,376.86
2023-03-15T06:38:39.616Z,392.72
2023-03-15T06:39:35.102Z,384.34
2023-03-15T06:40:30.473Z,373.01
2023-03-15T06:41:25.892Z,348.08
2023-03-15T06:42:21.329Z,300.84
2023-03-15T06:43:16.736Z,316.52
2023-03-15T06:44:12.252Z,342.63
2023-03-15T06:45:07.539Z,379.53
2023-03-15T06:46:02.959Z,384.56
2023-03-15T06:46:58.399Z,362.30
2023-03-15T06:47:53.572Z,351.06
2023-03-15T06:48:48.428Z,357.95
2023-03-15T06:49:43.466Z,350.68
2023-03-15T06:50:46.833Z,371.32
2023-03-15T06:51:34.482Z,335.27
2023-03-15T06:52:28.549Z,333.91
2023-03-15T06:53:23.526Z,357.17
2023-03-15T06:54:18.533Z,342.98
2023-03-15T06:55:13.528Z,359.91
2023-03-15T06:56:08.546Z,376.86
2023-03-15T06:57:06.014Z,368.40
2023-03-15T06:58:01.567Z,301.67
2023-03-15T06:58:56.653Z,305.04
2023-03-15T06:59:52.065Z,332.89
2023-03-15T07:00:47.427Z,376.43
2023-03-15T07:01:42.878Z,405.12
2023-03-15T07:02:38.517Z,457.36
2023-03-15T07:03:33.586Z,506.33
2023-03-15T07:04:28.931Z,531.77
2023-03-15T07:05:24.371Z,545.24
2023-03-15T07:06:19.764Z,537.34
2023-03-15T07:07:15.284Z,528.39
2023-03-15T07:08:10.646Z,590.64
2023-03-15T07:09:06.061Z,578.35
2023-03-15T07:10:01.542Z,573.87
2023-03-15T07:10:56.654Z,623.21
2023-03-15T07:11:51.593Z,689.59
2023-03-15T07:12:46.644Z,747.57
2023-03-15T07:13:41.624Z,731.18
2023-03-15T07:14:36.747Z,720.90
2023-03-15T07:15:31.712Z,734.40
2023-03-15T07:16:26.789Z,695.34
2023-03-15T07:17:21.805Z,723.25
2023-03-15T07:18:16.817Z,794.64
2023-03-15T07:19:11.793Z,782.07
2023-03-15T07:20:08.568Z,802.77
2023-03-15T07:21:03.639Z,827.14
2023-03-15T07:21:58.859Z,780.70
2023-03-15T07:22:54.141Z,717.03
2023-03-15T07:23:49.234Z,661.54
2023-03-15T07:24:44.327Z,633.87
2023-03-15T07:25:53.989Z,663.52
2023-03-15T07:26:35.502Z,679.75
2023-03-15T07:27:29.729Z,667.50
2023-03-15T07:28:24.823Z,640.57
2023-03-15T07:29:20.454Z,668.17
2023-03-15T07:30:15.532Z,756.80
2023-03-15T07:31:10.914Z,810.07
2023-03-15T07:32:06.397Z,861.85
2023-03-15T07:33:02.069Z,874.84
2023-03-15T07:33:57.114Z,853.58
2023-03-15T07:34:52.387Z,864.64
2023-03-15T07:35:47.818Z,892.98
2023-03-15T07:36:43.301Z,660.89
2023-03-15T07:37:43.124Z,602.92
2023-03-15T07:38:35.022Z,666.83
2023-03-15T07:39:29.463Z,746.73
2023-03-15T07:40:24.755Z,836.47
2023-03-15T07:41:20.144Z,906.93
2023-03-15T07:42:15.626Z,925.80
2023-03-15T07:43:11.023Z,983.06
2023-03-15T07:44:06.647Z,993.30
2023-03-15T07:45:02.109Z,837.52
2023-03-15T07:45:57.409Z,842.80
2023-03-15T07:46:53.016Z,918.79
2023-03-15T07:47:48.540Z,970.20
2023-03-15T07:48:43.861Z,983.79
2023-03-15T07:49:39.751Z,1026.92
2023-03-15T07:50:35.096Z,1120.91
2023-03-15T07:51:30.409Z,1175.18
2023-03-15T07:52:25.958Z,1161.88
2023-03-15T07:53:21.478Z,1224.77
2023-03-15T07:54:17.160Z,1304.98
2023-03-15T07:55:12.719Z,1376.29
2023-03-15T07:56:08.354Z,1418.70
2023-03-15T07:57:03.751Z,1440.13
2023-03-15T07:57:59.197Z,1380.56
2023-03-15T07:58:57.953Z,1312.68
2023-03-15T07:59:53.207Z,1283.65
2023-03-15T08:00:49.120Z,1257.06
2023-03-15T08:01:44.399Z,1266.60
2023-03-15T08:02:40.288Z,1267.81
2023-03-15T08:03:35.552Z,1221.41
2023-03-15T08:04:31.439Z,1252.34
2023-03-15T08:05:29.059Z,1261.81
2023-03-15T08:06:22.537Z,1335.00
2023-03-15T08:07:18.233Z,1219.18
2023-03-15T08:08:13.751Z,1209.24
2023-03-15T08:09:08.724Z,1255.88
2023-03-15T08:10:03.848Z,1339.02
2023-03-15T08:10:58.823Z,1339.02
2023-03-15T08:11:54.023Z,1386.29
2023-03-15T08:12:49.098Z,1390.62
2023-03-15T08:13:44.250Z,1340.36
2023-03-15T08:14:39.244Z,1335.00
2023-03-15T08:15:34.367Z,1172.08
2023-03-15T08:16:29.531Z,1288.61
2023-03-15T08:17:24.617Z,1418.70
2023-03-15T08:18:19.582Z,1374.87
2023-03-15T08:19:14.643Z,1232.69
2023-03-15T08:20:09.725Z,1248.83
2023-03-15T08:21:04.854Z,1261.81
2023-03-15T08:22:01.497Z,1278.74
2023-03-15T08:22:56.968Z,1331.01
2023-03-15T08:23:52.299Z,1090.69
2023-03-15T08:24:47.898Z,1032.48
2023-03-15T08:25:43.256Z,1003.01
2023-03-15T08:26:39.041Z,1043.78
2023-03-15T08:27:34.139Z,1109.73
2023-03-15T08:28:29.637Z,1029.30
2023-03-15T08:29:25.381Z,1106.96
2023-03-15T08:30:20.639Z,1221.41
2023-03-15T08:31:17.253Z,1333.67
2023-03-15T08:32:12.804Z,1365.03
2023-03-15T08:33:08.294Z,1460.61
2023-03-15T08:34:03.792Z,1500.84
2023-03-15T08:34:59.434Z,1570.59
2023-03-15T08:35:54.652Z,1616.22
2023-03-15T08:36:50.131Z,1681.36
2023-03-15T08:37:45.039Z,1592.13
2023-03-15T08:38:40.232Z,1259.43
2023-03-15T08:39:35.395Z,1156.85
2023-03-15T08:40:30.432Z,1239.55
2023-03-15T08:41:31.512Z,1343.06
2023-03-15T08:42:26.668Z,1412.70
2023-03-15T08:43:22.100Z,1187.72
2023-03-15T08:44:17.414Z,962.51
2023-03-15T08:45:13.123Z,1115.29
2023-03-15T08:46:08.606Z,1316.57
2023-03-15T08:47:04.097Z,1433.94
2023-03-15T08:47:59.761Z,1328.36
2023-03-15T08:48:55.299Z,1435.48
2023-03-15T08:49:50.531Z,1592.13
2023-03-15T08:50:46.035Z,1722.58
2023-03-15T08:51:41.620Z,1822.53
2023-03-15T08:52:37.168Z,1970.48
2023-03-15T08:53:32.580Z,2012.06
2023-03-15T08:54:28.045Z,1936.19
2023-03-15T08:55:23.062Z,1937.59
2023-03-15T08:56:18.095Z,1979.24
2023-03-15T08:57:13.134Z,1925.02
2023-03-15T08:58:08.249Z,1991.05
2023-03-15T08:59:03.231Z,2007.52
2023-03-15T08:59:58.239Z,2241.81
2023-03-15T09:00:53.286Z,2321.74
2023-03-15T09:01:48.490Z,2367.02
2023-03-15T09:02:43.529Z,2396.77
2023-03-15T09:03:38.568Z,2202.97
2023-03-15T09:04:34.840Z,1598.80
2023-03-15T09:05:29.958Z,1632.03
2023-03-15T09:06:25.105Z,1886.93
2023-03-15T09:07:20.113Z,1963.23
2023-03-15T09:08:15.753Z,1772.91
2023-03-15T09:09:11.324Z,1673.98
2023-03-15T09:10:06.879Z,1776.45
2023-03-15T09:11:02.302Z,1926.41
2023-03-15T09:11:57.978Z,1909.87
2023-03-15T09:12:53.410Z,2063.37
2023-03-15T09:13:48.958Z,2210.26
2023-03-15T09:14:44.380Z,2299.74
2023-03-15T09:15:39.630Z,2350.35
2023-03-15T09:16:35.298Z,2438.36
2023-03-15T09:17:30.725Z,2502.34
2023-03-15T09:18:26.332Z,2509.40
2023-03-15T09:19:21.830Z,2602.34
2023-03-15T09:20:17.384Z,2640.95
2023-03-15T09:21:12.417Z,2686.12
2023-03-15T09:22:16.270Z,2297.76
2023-03-15T09:23:03.533Z,2523.63
2023-03-15T09:23:57.712Z,2449.54
2023-03-15T09:24:52.723Z,2516.49
2023-03-15T09:25:47.702Z,2696.97
2023-03-15T09:26:42.733Z,2834.40
2023-03-15T09:27:40.404Z,2855.61
2023-03-15T09:28:35.802Z,2804.62
2023-03-15T09:29:31.236Z,2177.81
2023-03-15T09:30:26.771Z,1983.66
2023-03-15T09:31:22.765Z,2260.80
2023-03-15T09:32:17.925Z,2497.66
2023-03-15T09:33:13.348Z,2688.82
2023-03-15T09:34:08.864Z,2602.34
2023-03-15T09:35:04.420Z,2672.67
2023-03-15T09:36:01.550Z,2752.58
2023-03-15T09:36:56.530Z,2744.09
2023-03-15T09:37:51.921Z,2702.43
2023-03-15T09:38:47.348Z,2789.97
2023-03-15T09:39:42.767Z,2883.37
2023-03-15T09:40:38.452Z,2874.06
2023-03-15T09:41:33.305Z,2960.09
2023-03-15T09:42:28.442Z,2819.43
2023-03-15T09:43:23.583Z,3176.68
2023-03-15T09:44:18.627Z,2633.14
2023-03-15T09:45:13.672Z,2705.17
2023-03-15T09:46:09.109Z,2456.30
2023-03-15T09:47:03.980Z,2810.53
2023-03-15T09:47:59.103Z,2746.91
2023-03-15T09:48:54.081Z,2646.18
2023-03-15T09:49:49.158Z,2691.53
2023-03-15T09:50:44.345Z,2822.41
2023-03-15T09:51:39.232Z,2772.59
2023-03-15T09:52:34.189Z,2813.49
2023-03-15T09:53:29.334Z,2963.37
2023-03-15T09:54:24.392Z,3084.92
2023-03-15T09:55:19.382Z,3333.33
2023-03-15T09:56:14.455Z,3412.14
2023-03-15T09:57:09.474Z,3260.07
2023-03-15T09:58:04.465Z,3201.44
2023-03-15T09:58:59.480Z,3201.44
2023-03-15T09:59:54.989Z,3396.95
2023-03-15T10:00:50.587Z,3454.07
2023-03-15T10:01:45.973Z,3445.16
2023-03-15T10:02:41.280Z,3465.28
2023-03-15T10:03:36.285Z,3593.54
2023-03-15T10:04:31.305Z,3773.85
2023-03-15T10:05:26.281Z,3635.13
2023-03-15T10:06:23.218Z,2993.27
2023-03-15T10:07:18.030Z,3325.03
2023-03-15T10:08:13.166Z,3407.79
2023-03-15T10:09:08.166Z,3312.66
2023-03-15T10:10:04.487Z,2635.74
2023-03-15T10:10:59.965Z,2918.03
2023-03-15T10:11:55.225Z,3405.61
2023-03-15T10:12:50.740Z,3620.34
2023-03-15T10:13:46.231Z,3883.64
2023-03-15T10:14:41.862Z,4181.68
2023-03-15T10:15:37.258Z,4377.05
2023-03-15T10:16:32.992Z,4387.84
2023-03-15T10:17:28.386Z,4450.00
2023-03-15T10:18:23.994Z,4369.88
2023-03-15T10:19:19.405Z,4556.31
2023-03-15T10:20:14.967Z,4797.84
2023-03-15T10:21:10.444Z,4517.77
2023-03-15T10:22:06.272Z,4420.53
2023-03-15T10:23:01.062Z,4536.96
2023-03-15T10:23:56.244Z,4098.23
2023-03-15T10:24:51.244Z,2329.84
2023-03-15T10:25:46.374Z,1953.18
2023-03-15T10:26:41.557Z,2356.57
2023-03-15T10:27:36.540Z,2792.89
2023-03-15T10:28:33.841Z,3211.06
2023-03-15T10:29:28.454Z,3541.11
2023-03-15T10:30:23.446Z,3988.05
2023-03-15T10:31:22.870Z,4165.37
2023-03-15T10:32:14.629Z,4188.23
2023-03-15T10:33:08.628Z,4171.88
2023-03-15T10:34:03.756Z,4402.31
2023-03-15T10:34:58.839Z,4619.38
2023-03-15T10:35:58.594Z,4619.38
2023-03-15T10:36:50.085Z,4513.95
2023-03-15T10:37:43.944Z,4548.55
2023-03-15T10:38:39.011Z,4908.09
2023-03-15T10:39:34.562Z,4540.82
2023-03-15T10:40:30.049Z,4676.01
2023-03-15T10:41:29.019Z,4949.03
2023-03-15T10:42:22.673Z,5076.05
2023-03-15T10:43:18.157Z,5488.18
2023-03-15T10:44:13.708Z,3808.84
2023-03-15T10:45:09.090Z,3795.31
2023-03-15T10:46:04.223Z,4231.38
2023-03-15T10:47:02.654Z,4587.63
2023-03-15T10:48:00.274Z,4359.18
2023-03-15T10:48:50.261Z,4057.75
2023-03-15T10:49:44.316Z,3612.99
2023-03-15T10:50:39.287Z,3388.32
2023-03-15T10:51:34.316Z,3605.67
2023-03-15T10:52:30.080Z,4060.84
2023-03-15T10:53:25.548Z,4085.69
2023-03-15T10:54:20.829Z,2721.71
2023-03-15T10:55:16.383Z,2333.92
2023-03-15T10:56:11.896Z,2258.88
2023-03-15T10:57:07.317Z,2390.33
2023-03-15T10:58:02.687Z,2526.02
2023-03-15T10:59:11.323Z,3051.43
2023-03-15T10:59:54.730Z,3467.53
2023-03-15T11:00:49.333Z,3591.12
2023-03-15T11:01:44.904Z,3652.53
2023-03-15T11:02:40.438Z,3768.52
2023-03-15T11:03:35.697Z,3836.21
2023-03-15T11:04:33.125Z,3369.08
2023-03-15T11:05:30.461Z,3218.81
2023-03-15T11:06:26.123Z,3513.16
2023-03-15T11:07:21.505Z,3401.27
2023-03-15T11:08:16.901Z,3497.05
2023-03-15T11:09:12.273Z,3642.56
2023-03-15T11:10:07.712Z,3798.01
2023-03-15T11:11:03.236Z,4027.15
2023-03-15T11:11:59.056Z,3909.22
2023-03-15T11:12:54.739Z,2993.27
2023-03-15T11:13:49.933Z,2998.32
2023-03-15T11:14:45.534Z,3276.07
2023-03-15T11:15:40.901Z,3335.42
2023-03-15T11:16:36.396Z,3513.16
2023-03-15T11:17:32.166Z,3608.11
2023-03-15T11:18:27.542Z,3836.21
2023-03-15T11:19:22.625Z,4085.69
2023-03-15T11:20:17.820Z,4268.58
2023-03-15T11:21:12.774Z,4341.46
2023-03-15T11:22:07.800Z,4377.05
2023-03-15T11:23:03.260Z,4184.95
2023-03-15T11:23:58.092Z,4211.36
2023-03-15T11:24:53.265Z,3912.09